Currently 70°F in Perris, California, USA
70°F
76°F / 51°F
10 mph NW
0.00"
Monday, May 20, 2024 5:53 PM PDT

Perris, California Weather Summary
Last 36 Hours

Temperature Winds Hourly Humidity Dewpoint
Time Report Norm Report Norm Max Gusts Precip. Rpt. Norm Rpt. Norm Pressure
1Mon 05:53 PM  70.1°F  74°F  10 mph NW  6 mph  15 mph  0.00"  55%  46%  53°F  51°F  29.93"
Mon 05:00 PM  70.8°F  76°F  9 mph NW  6 mph  17 mph  0.00"  52%  43%  51°F  51°F  29.93"
Mon 04:00 PM  72.4°F  77°F  9 mph NW  6 mph  17 mph  0.00"  49%  41%  52°F  51°F  29.94"
2Mon 03:19 PM  75.7°F  78°F  7 mph NW  6 mph  16 mph  ----  46%  41%  53°F  51°F  29.96"
Mon 03:00 PM  72.2°F  78°F  2 mph NW  6 mph  15 mph  0.00"  46%  41%  49°F  51°F  29.97"
Mon 02:00 PM  71.3°F  77°F  3 mph W  5 mph  12 mph  0.00"  52%  42%  52°F  51°F  29.99"
Mon 01:00 PM  68.6°F  75°F  4 mph NW  5 mph  8 mph  0.00"  54%  44%  51°F  51°F  30.01"
Mon 12:00 PM  62.2°F  73°F  4 mph SW  4 mph  7 mph  0.00"  65%  48%  50°F  52°F  30.04"
Mon 11:00 AM  60.2°F  70°F  3 mph SW  3 mph  7 mph  0.00"  74%  54%  51°F  52°F  30.04"
Mon 10:00 AM  57.8°F  67°F  calm  3 mph  5 mph  0.00"  84%  63%  53°F  53°F  30.05"
Mon 09:00 AM  54.7°F  63°F  2 mph S  2 mph  7 mph  0.00"  85%  73%  50°F  54°F  30.06"
Mon 08:00 AM  53.1°F  59°F  calm  2 mph  8 mph  0.00"  90%  82%  50°F  53°F  30.05"
Mon 07:00 AM  52.6°F  56°F  5 mph SE  2 mph  9 mph  0.00"  92%  87%  50°F  52°F  30.04"
Mon 06:00 AM  53.4°F  55°F  4 mph SE  2 mph  5 mph  0.00"  93%  87%  51°F  51°F  30.02"
Mon 05:00 AM  51.7°F  56°F  3 mph SE  2 mph  7 mph  0.00"  93%  86%  50°F  52°F  30.01"
3Mon 04:28 AM  51.1°F  56°F  4 mph SE  2 mph  7 mph  ----  93%  86%  49°F  52°F  30.00"
Mon 04:00 AM  53.1°F  56°F  4 mph SE  2 mph  7 mph  0.00"  92%  86%  51°F  52°F  29.99"
Mon 03:00 AM  52.5°F  57°F  2 mph SE  2 mph  4 mph  0.00"  91%  85%  50°F  52°F  29.99"
Mon 02:00 AM  53.4°F  58°F  2 mph E  2 mph  3 mph  0.00"  89%  83%  50°F  52°F  29.99"
Mon 01:00 AM  53.1°F  59°F  2 mph E  3 mph  4 mph  0.00"  87%  82%  49°F  53°F  30.00"
Mon 12:00 AM  54.6°F  59°F  1 mph E  3 mph  4 mph  0.00"  84%  80%  50°F  53°F  30.00"
Sun 11:00 PM  57.4°F  60°F  2 mph E  3 mph  6 mph  0.00"  82%  77%  52°F  53°F  30.00"
Sun 10:00 PM  57.4°F  62°F  2 mph SE  3 mph  6 mph  0.00"  78%  74%  50°F  53°F  30.00"
Sun 09:00 PM  62.2°F  64°F  2 mph SE  4 mph  7 mph  0.00"  72%  68%  53°F  53°F  29.98"
Sun 08:00 PM  63.7°F  67°F  5 mph NW  4 mph  12 mph  0.00"  62%  60%  50°F  52°F  29.98"
Sun 07:00 PM  68.3°F  71°F  3 mph S  5 mph  12 mph  0.00"  52%  52%  49°F  52°F  29.98"
Sun 06:00 PM  71.5°F  74°F  7 mph S  6 mph  15 mph  0.00"  46%  46%  49°F  51°F  29.98"
Sun 05:00 PM  75.6°F  76°F  4 mph W  6 mph  14 mph  0.00"  43%  42%  51°F  51°F  29.98"
Sun 04:00 PM  76.8°F  78°F  8 mph NW  6 mph  15 mph  0.00"  43%  41%  52°F  51°F  29.99"
Sun 03:00 PM  78.4°F  78°F  6 mph NW  6 mph  14 mph  0.00"  41%  40%  52°F  51°F  30.02"
Sun 02:00 PM  79.0°F  77°F  2 mph W  5 mph  11 mph  0.00"  39%  41%  51°F  51°F  30.03"
Sun 01:00 PM  73.2°F  76°F  3 mph S  5 mph  8 mph  0.00"  42%  43%  48°F  51°F  30.05"
Sun 12:00 PM  69.7°F  74°F  4 mph W  4 mph  9 mph  0.00"  49%  47%  49°F  51°F  30.07"
Sun 11:00 AM  63.1°F  70°F  calm  3 mph  7 mph  0.00"  58%  53%  47°F  52°F  30.07"
Sun 10:00 AM  64.2°F  67°F  1 mph S  3 mph  8 mph  0.00"  68%  62%  53°F  53°F  30.09"
Sun 09:00 AM  58.3°F  63°F  4 mph SW  2 mph  8 mph  0.00"  78%  73%  51°F  54°F  30.09"
Sun 08:00 AM  56.1°F  59°F  calm  2 mph  5 mph  0.00"  88%  82%  52°F  53°F  30.10"
Sun 07:00 AM  54.2°F  56°F  3 mph S  2 mph  7 mph  0.00"  93%  87%  52°F  52°F  30.09"
Sun 06:00 AM  55.5°F  55°F  1 mph E  2 mph  5 mph  0.00"  95%  87%  54°F  51°F  30.07"

  1. Current weather data. No green row appears if the current weather data is also the high or low for the current day.
  2. High temperature for the current day.
  3. Low temperature for the current day.

The Perris, California weather pages are a service of WeatherCurrents. Perris is located in Southern California's Inland Empire, south of Riverside and north of Sun City, along the Interstate 215 freeway.
Copyright ©2024  WeatherCurrents. All rights reserved. - Submit questions and comments - Privacy Policy

This page automatically refreshes every 10 minutes.